Latest Weather Observations for Mount Hotham Airport

IDV60801

Issued at 6:22 pm EDT Monday 25 October 2021 (issued every 10 minutes, with the page automatically refreshed every 10 minutes)

About weather observations | Map of weather stations | Latest weather observations for VIC | Other Formats
Station Details ID: 083055 Name: MOUNT HOTHAM AIRPORT Lat: -37.05 Lon: 147.33 Height: 1295.4 m
Data from the previous 72 hours. | See also: Recent months at Mount Hotham Airport
Date/Time
EDT
Temp
°C
App
Temp
°C
Dew
Point
°C
Rel
Hum
%
Delta-T
°C
Wind Press
QNH
hPa
Press
MSL
hPa
Rain since
9am
mm
Dir  Spd
km/h
Gust
km/h
Spd
kts
Gust
kts
25/06:00pm 7.2 2.8 0.6 63 2.8 S 13 20 7 11 1017.8 1016.1 0.0
25/05:30pm 7.6 2.8 0.3 60 3.1 S 15 26 8 14 1017.6 1015.9 0.0
25/05:00pm 7.9 2.4 0.6 60 3.2 S 19 24 10 13 1017.3 1015.6 0.0
25/04:30pm 8.3 3.2 0.5 58 3.4 S 17 26 9 14 1017.3 1015.6 0.0
25/04:00pm 7.9 2.7 0.2 58 3.3 S 17 28 9 15 1017.3 1015.6 0.0
25/03:30pm 8.8 4.0 0.5 56 3.6 S 15 28 8 15 1017.6 1015.9 0.0
25/03:00pm 8.7 4.4 0.9 58 3.4 SSW 13 19 7 10 1017.7 1016.0 0.0
25/02:30pm 7.7 3.9 -0.8 55 3.6 SW 9 17 5 9 1018.0 1016.3 0.0
25/02:00pm 7.4 3.4 0.4 61 3.0 WSW 11 20 6 11 1018.1 1016.4 0.0
25/01:30pm 6.9 2.5 0.1 62 2.9 SSW 13 22 7 12 1018.2 1016.6 0.0
25/01:00pm 6.6 2.3 0.7 66 2.5 SSW 13 20 7 11 1018.1 1016.4 0.0
25/12:38pm 6.5 1.9 -0.7 60 3.0 SSW 13 22 7 12 1018.2 1016.6 0.0
25/12:30pm 5.6 0.7 -0.7 64 2.6 S 15 26 8 14 1018.4 1016.7 0.0
25/12:00pm 4.6 -0.1 0.6 75 1.7 SSE 15 22 8 12 1018.2 1016.6 0.0
25/11:30am 4.1 0.0 2.1 87 0.9 S 13 20 7 11 1018.5 1016.8 0.0
25/11:00am 2.9 -1.1 0.6 85 0.9 SSW 11 17 6 9 1018.6 1016.9 0.0
25/10:30am 5.1 1.3 1.9 80 1.4 S 11 19 6 10 1018.5 1016.8 0.0
25/10:00am 4.0 -0.8 0.0 75 1.6 S 15 22 8 12 1018.2 1016.6 0.0
25/09:30am 3.9 -0.5 0.6 79 1.4 S 13 24 7 13 1018.1 1016.4 0.0
25/09:00am 3.0 -0.8 -0.8 76 1.5 SSE 9 17 5 9 1017.9 1016.2 0.0
25/08:30am 3.0 -1.5 -0.5 78 1.4 S 13 24 7 13 1017.8 1016.1 0.0
25/08:28am 2.7 -1.9 -0.9 77 1.4 S 13 22 7 12 1017.7 1016.0 0.0
25/08:00am 2.1 -2.1 -1.2 79 1.3 SSW 11 19 6 10 1017.3 1015.6 0.0
25/07:30am 1.0 -2.3 -1.4 84 0.9 SSW 6 11 3 6 1017.1 1015.4 0.0
25/07:01am 0.0 -2.7 -2.1 86 0.8 W 2 6 1 3 1017.1 1015.4 0.0
25/07:00am 0.0 -2.7 -2.1 86 0.8 W 2 6 1 3 1017.1 1015.4 0.0
25/06:30am -0.5 -3.9 -2.2 88 0.6 SW 6 9 3 5 1017.0 1015.3 0.0
25/06:00am -0.4 -4.0 -2.1 88 0.6 SSW 7 13 4 7 1016.7 1014.9 0.0
25/05:30am -0.6 -3.2 -2.0 90 0.5 S 2 7 1 4 1016.7 1014.9 0.0
25/05:00am -0.9 -4.3 -2.0 92 0.4 SSW 6 7 3 4 1016.5 1014.8 0.0
25/04:30am -1.7 -4.4 -2.8 92 0.3 NNW 2 4 1 2 1016.3 1014.6 0.0
25/04:28am -1.8 -4.6 -2.9 92 0.3 NNW 2 6 1 3 1016.3 1014.6 0.0
25/04:00am -1.9 -5.1 -3.6 88 0.5 W 4 6 2 3 1016.2 1014.5 0.0
25/03:56am -1.7 -5.3 -3.4 88 0.5 WSW 6 9 3 5 1016.2 1014.5 0.0
25/03:30am -0.9 -4.3 -1.9 93 0.3 SW 6 9 3 5 1016.3 1014.6 0.0
25/03:00am -1.2 -4.6 -2.2 93 0.3 SSW 6 9 3 5 1016.7 1014.9 0.0
25/02:30am -0.3 -3.8 -1.7 90 0.5 SSW 7 11 4 6 1016.8 1015.0 0.0
25/02:00am 0.1 -3.4 -1.5 89 0.6 SSW 7 13 4 7 1017.0 1015.3 0.0
25/01:30am 0.5 -3.0 -1.3 88 0.7 SSW 7 17 4 9 1017.2 1015.5 0.0
25/01:00am 0.7 -2.6 -0.9 89 0.6 SSW 6 13 3 7 1017.7 1016.0 0.0
25/12:30am 1.0 -3.1 -0.3 91 0.5 S 11 17 6 9 1018.0 1016.3 0.0
25/12:00am 1.1 -2.0 0.4 95 0.3 S 6 13 3 7 1018.0 1016.3 0.0
 
Date/Time
EDT
Temp
°C
App
Temp
°C
Dew
Point
°C
Rel
Hum
%
Delta-T
°C
Wind Press
QNH
hPa
Press
MSL
hPa
Rain since
9am
mm
Dir  Spd
km/h
Gust
km/h
Spd
kts
Gust
kts
24/11:30pm 0.7 -3.0 -0.2 94 0.4 SSW 9 13 5 7 1018.2 1016.6 0.0
24/11:00pm 1.3 -2.3 0.4 94 0.4 S 9 15 5 8 1018.2 1016.6 0.0
24/10:30pm 2.1 -1.5 0.9 92 0.5 SSW 9 13 5 7 1018.4 1016.7 0.0
24/10:00pm 2.3 -1.2 1.0 91 0.5 SSW 9 17 5 9 1018.5 1016.8 0.0
24/09:30pm 2.7 -1.2 1.2 90 0.6 SSW 11 19 6 10 1018.4 1016.7 0.0
24/09:15pm 2.9 -1.3 1.4 90 0.6 SSW 13 17 7 9 1018.4 1016.7 0.0
24/09:00pm 2.9 -1.0 1.4 90 0.6 S 11 17 6 9 1018.4 1016.7 0.0
24/08:30pm 2.9 -1.3 1.4 90 0.6 SSW 13 19 7 10 1018.1 1016.4 0.0
24/08:23pm 2.8 -1.9 1.2 89 0.7 SSW 15 22 8 12 1018.1 1016.4 0.0
24/08:00pm 3.4 -1.2 1.3 86 0.9 SSW 15 24 8 13 1017.9 1016.2 0.0
24/07:30pm 4.0 -0.3 1.0 81 1.3 SSW 13 19 7 10 1017.8 1016.1 0.0
24/07:04pm 4.4 0.5 1.1 79 1.4 S 11 19 6 10 1017.7 1016.0 0.0
24/07:00pm 4.4 -0.3 1.1 79 1.4 S 15 26 8 14 1017.6 1015.9 0.0
24/06:30pm 5.8 0.7 1.0 71 2.1 S 17 28 9 15 1017.2 1015.5 0.0
24/06:00pm 7.6 2.9 0.8 62 3.0 S 15 28 8 15 1017.1 1015.4 0.0
24/05:30pm 8.2 2.7 0.4 58 3.4 S 19 28 10 15 1016.9 1015.2 0.0
24/05:00pm 8.8 3.0 0.0 54 3.8 SSW 20 32 11 17 1016.8 1015.0 0.0
24/04:30pm 9.7 3.7 -1.3 46 4.6 SW 20 30 11 16 1016.9 1015.2 0.0
24/04:00pm 10.6 5.6 -1.1 44 5.0 SW 15 28 8 15 1017.2 1015.5 0.0
24/03:30pm 9.6 4.4 -2.7 42 5.0 SW 15 26 8 14 1017.4 1015.7 0.0
24/03:00pm 10.7 6.6 -0.4 46 4.8 SW 11 20 6 11 1017.8 1016.1 0.0
24/02:30pm 8.6 3.8 0.3 56 3.6 SSE 15 30 8 16 1017.9 1016.2 0.0
24/02:00pm 9.6 5.2 0.2 52 4.1 S 13 22 7 12 1018.1 1016.4 0.0
24/01:30pm 8.7 5.0 0.2 55 3.7 S 9 19 5 10 1018.2 1016.6 0.0
24/01:00pm 9.8 5.6 1.5 56 3.7 SSW 13 32 7 17 1018.5 1016.8 0.0
24/12:30pm 8.4 2.7 -0.6 53 3.8 S 19 32 10 17 1018.5 1016.8 0.0
24/12:00pm 7.2 1.8 -1.5 54 3.6 SSW 17 28 9 15 1018.6 1016.9 0.0
24/11:38am 7.0 2.5 -0.2 60 3.0 SW 13 24 7 13 1018.6 1016.9 0.0
24/11:30am 7.2 2.6 1.3 66 2.6 SW 15 32 8 17 1018.6 1016.9 0.0
24/11:18am 6.3 1.6 0.6 67 2.4 SSW 15 28 8 15 1018.6 1016.9 0.0
24/11:13am 6.2 1.4 0.5 67 2.4 SSW 15 24 8 13 1018.6 1016.9 0.0
24/11:03am 6.6 2.1 1.9 72 2.1 SW 15 24 8 13 1018.6 1016.9 0.0
24/11:00am 5.4 1.0 0.4 70 2.1 SW 13 20 7 11 1018.6 1016.9 0.0
24/10:30am 6.2 2.1 2.1 75 1.8 SSW 13 26 7 14 1018.6 1016.9 0.0
24/10:04am 4.0 0.4 0.9 80 1.3 SSW 9 19 5 10 1018.6 1016.9 0.0
24/10:00am 4.0 0.1 1.0 81 1.3 SSW 11 19 6 10 1018.6 1016.9 0.0
24/09:50am 3.8 -0.5 0.8 81 1.3 S 13 22 7 12 1018.6 1016.9 0.0
24/09:35am 4.6 -0.6 2.3 85 1.0 SSW 19 28 10 15 1018.5 1016.8 0.0
24/09:30am 4.5 0.0 2.0 84 1.1 SSW 15 28 8 15 1018.5 1016.8 0.0
24/09:00am 4.0 0.1 3.3 95 0.3 SSW 13 22 7 12 1018.4 1016.7 0.6
24/08:30am 2.7 -0.6 2.6 99 0.0 SW 9 17 5 9 1018.1 1016.4 0.6
24/08:26am 2.4 -0.9 2.3 99 0.0 SW 9 15 5 8 1018.2 1016.6 0.6
24/08:09am 2.0 -1.4 1.9 99 0.0 S 9 19 5 10 1018.0 1016.3 0.6
24/08:00am 2.2 -1.2 2.1 99 0.0 SSW 9 13 5 7 1017.9 1016.2 0.6
24/07:30am 1.8 -2.0 1.7 99 0.0 SSW 11 17 6 9 1017.6 1015.9 0.6
24/07:00am 1.5 -2.0 1.4 99 0.0 S 9 15 5 8 1017.2 1015.5 0.6
24/06:30am 1.3 -2.6 1.0 98 0.1 S 11 17 6 9 1016.9 1015.2 0.6
24/06:01am 1.2 -2.8 0.5 95 0.3 SSW 11 19 6 10 1016.5 1014.8 0.6
24/06:00am 1.2 -2.8 0.5 95 0.3 SSW 11 19 6 10 1016.5 1014.8 0.6
24/05:43am 1.2 -3.1 0.9 98 0.1 SSW 13 20 7 11 1016.4 1014.7 0.6
24/05:30am 1.3 -2.2 1.2 99 0.0 SW 9 17 5 9 1016.4 1014.7 0.6
24/05:00am 1.9 -1.1 1.8 99 0.0 S 7 17 4 9 1016.5 1014.8 0.6
24/04:30am 1.9 -1.9 1.8 99 0.0 SSW 11 17 6 9 1016.4 1014.7 0.6
24/04:00am 2.3 -1.0 2.2 99 0.0 S 9 15 5 8 1016.4 1014.7 0.6
24/03:30am 2.3 -0.7 2.2 99 0.0 SW 7 11 4 6 1016.5 1014.8 0.6
24/03:00am 2.3 -1.4 2.2 99 0.0 SW 11 17 6 9 1016.5 1014.8 0.6
24/02:43am 2.3 -0.5 2.2 99 0.0 SW 6 11 3 6 1016.4 1014.7 0.6
24/02:30am 2.2 -0.2 2.1 99 0.0 S 4 9 2 5 1016.5 1014.8 0.6
24/02:00am 2.6 -0.7 2.5 99 0.0 SW 9 15 5 8 1016.7 1014.9 0.6
24/01:38am 2.5 -0.8 2.4 99 0.0 SSW 9 15 5 8 1016.8 1015.0 0.6
24/01:30am 2.7 -1.0 2.6 99 0.0 SSW 11 19 6 10 1016.7 1014.9 0.6
24/01:00am 4.0 -0.2 3.9 99 0.0 SSW 15 26 8 14 1016.9 1015.2 0.6
24/12:36am 4.4 1.4 4.3 99 0.0 SSW 9 15 5 8 1016.9 1015.2 0.6
24/12:30am 4.4 1.1 4.3 99 0.0 SSW 11 19 6 10 1016.9 1015.2 0.6
24/12:00am 4.8 1.1 4.7 99 0.0 SSW 13 20 7 11 1017.0 1015.3 0.6
 
Date/Time
EDT
Temp
°C
App
Temp
°C
Dew
Point
°C
Rel
Hum
%
Delta-T
°C
Wind Press
QNH
hPa
Press
MSL
hPa
Rain since
9am
mm
Dir  Spd
km/h
Gust
km/h
Spd
kts
Gust
kts
23/11:38pm 4.9 1.3 4.8 99 0.0 S 13 19 7 10 1016.9 1015.2 0.6
23/11:30pm 5.0 2.1 4.9 99 0.0 S 9 13 5 7 1016.9 1015.2 0.6
23/11:01pm 4.9 2.0 4.8 99 0.0 SSW 9 15 5 8 1016.9 1015.2 0.6
23/11:00pm 4.9 2.0 4.8 99 0.0 SSW 9 15 5 8 1016.9 1015.2 0.6
23/10:30pm 5.2 3.3 5.1 99 0.0 S 4 9 2 5 1016.8 1015.0 0.6
23/10:00pm 5.4 3.2 5.3 99 0.0 S 6 11 3 6 1016.8 1015.0 0.6
23/09:30pm 5.5 2.8 5.4 99 0.0 S 9 15 5 8 1016.7 1014.9 0.6
23/09:00pm 5.8 3.1 5.7 99 0.0 S 9 13 5 7 1016.2 1014.5 0.6
23/08:30pm 6.0 3.4 5.9 99 0.0 SSW 9 17 5 9 1015.9 1014.1 0.6
23/08:00pm 6.5 3.2 6.4 99 0.0 SSW 13 19 7 10 1015.3 1013.5 0.6
23/07:30pm 7.3 4.2 7.2 99 0.1 SSW 13 17 7 9 1014.8 1013.1 0.6
23/07:01pm 8.5 6.0 8.1 97 0.2 S 11 17 6 9 1014.4 1012.6 0.6
23/07:00pm 8.5 6.0 8.1 97 0.2 SSW 11 17 6 9 1014.5 1012.7 0.6
23/06:30pm 10.6 8.7 8.9 89 0.9 S 9 15 5 8 1014.2 1012.4 0.6
23/06:25pm 10.6 8.6 8.5 87 1.1 S 9 15 5 8 1014.0 1012.2 0.6
23/06:00pm 12.5 10.9 8.6 77 2.1 SSW 7 11 4 6 1013.8 1012.0 0.6
23/05:30pm 13.4 8.5 5.3 58 4.1 NW 20 33 11 18 1013.6 1011.8 0.6
23/05:00pm 14.2 9.3 6.8 61 3.9 W 22 33 12 18 1013.4 1011.5 0.6
23/04:30pm 15.3 9.6 6.6 56 4.5 NW 26 41 14 22 1013.0 1011.2 0.6
23/04:00pm 15.0 8.5 6.6 57 4.4 NW 30 44 16 24 1013.5 1011.7 0.6
23/03:37pm 15.3 8.3 6.1 54 4.8 NW 32 50 17 27 1013.4 1011.5 0.6
23/03:30pm 14.6 7.0 5.9 56 4.5 NW 35 50 19 27 1013.4 1011.5 0.6
23/03:01pm 15.8 9.7 6.8 55 4.7 WNW 28 65 15 35 1013.7 1011.9 0.6
23/03:00pm 16.3 11.1 7.3 55 4.8 WNW 24 43 13 23 1013.7 1011.9 0.6
23/02:30pm 16.1 10.7 8.1 59 4.3 NW 26 43 14 23 1013.9 1012.1 0.6
23/02:00pm 15.2 10.9 7.7 61 4.0 NW 20 41 11 22 1014.0 1012.2 0.6
23/01:30pm 14.3 9.6 7.6 64 3.5 WNW 22 35 12 19 1014.3 1012.5 0.6
23/01:00pm 15.2 9.8 8.2 63 3.8 WNW 26 37 14 20 1014.3 1012.5 0.6
23/12:30pm 14.2 10.8 9.0 71 2.8 NW 17 28 9 15 1014.5 1012.7 0.6
23/12:09pm 14.2 10.5 9.4 73 2.6 NNW 19 30 10 16 1014.5 1012.7 0.6
23/12:00pm 13.8 10.1 9.6 76 2.3 NNW 19 32 10 17 1014.6 1012.8 0.6
23/11:51am 13.6 10.0 9.8 78 2.1 NNW 19 33 10 18 1014.7 1012.9 0.6
23/11:30am 12.8 9.3 10.2 84 1.4 NW 19 28 10 15 1015.0 1013.2 0.6
23/11:00am 11.8 8.9 9.7 87 1.1 NW 15 22 8 12 1015.1 1013.3 0.6
23/10:30am 12.1 10.6 9.3 83 1.5 NW 7 11 4 6 1014.8 1013.1 0.4
23/10:00am 11.4 9.0 8.8 84 1.4 NNW 11 19 6 10 1015.3 1013.5 0.4
23/09:30am 11.2 10.0 9.6 90 0.9 NNW 6 9 3 5 1015.6 1013.9 0.0
23/09:00am 11.0 8.7 8.9 87 1.1 NW 11 22 6 12 1015.9 1014.1 0.4
23/08:30am 11.2 9.3 8.9 86 1.2 N 9 17 5 9 1015.3 1013.5 0.2
23/08:00am 11.5 9.4 8.4 81 1.6 NW 9 13 5 7 1016.0 1014.2 0.0
23/07:30am 11.8 8.3 7.3 74 2.3 NW 15 26 8 14 1015.3 1013.5 0.0
23/07:00am 11.5 8.0 7.0 74 2.3 NW 15 24 8 13 1015.4 1013.6 0.0
23/06:30am 11.7 6.4 6.8 72 2.5 NW 24 30 13 16 1015.4 1013.6 0.0
23/06:00am 11.8 6.3 6.1 68 2.9 NW 24 33 13 18 1014.7 1012.9 0.0
23/05:30am 12.0 7.2 5.6 65 3.2 NW 20 30 11 16 1015.2 1013.4 0.0
23/05:00am 11.7 7.1 6.4 70 2.7 NW 20 28 11 15 1014.7 1012.9 0.0
23/04:30am 10.1 7.9 5.3 72 2.4 NNW 6 7 3 4 1014.6 1012.8 0.0
23/04:00am 11.6 8.9 5.5 66 3.0 NNW 9 13 5 7 1014.8 1013.1 0.0
23/03:30am 9.8 8.5 6.0 77 1.9 WNW 2 4 1 2 1015.0 1013.2 0.0
23/03:00am 11.6 10.1 6.7 72 2.5 N 4 6 2 3 1015.2 1013.4 0.0
23/02:30am 12.5 8.2 7.0 69 2.8 NW 19 24 10 13 1015.4 1013.6 0.0
23/02:00am 12.4 8.8 6.9 69 2.8 NNW 15 22 8 12 1015.7 1014.0 0.0
23/01:30am 12.1 9.6 6.6 69 2.8 NNW 9 15 5 8 1016.4 1014.7 0.0
23/01:00am 10.6 9.1 6.6 76 2.0 NNW 4 9 2 5 1016.3 1014.6 0.0
23/12:30am 11.0 9.2 7.1 77 2.0 N 6 9 3 5 1016.7 1014.9 0.0
23/12:00am 10.8 8.9 6.7 76 2.1 NNW 6 7 3 4 1016.9 1015.2 0.0
 
Date/Time
EDT
Temp
°C
App
Temp
°C
Dew
Point
°C
Rel
Hum
%
Delta-T
°C
Wind Press
QNH
hPa
Press
MSL
hPa
Rain since
9am
mm
Dir  Spd
km/h
Gust
km/h
Spd
kts
Gust
kts
22/11:30pm 11.4 9.1 7.5 77 2.0 N 9 13 5 7 1017.1 1015.4 0.0
22/11:00pm 11.5 9.7 8.0 79 1.8 NNW 7 7 4 4 1017.2 1015.5 0.0
22/10:30pm 11.3 9.6 8.2 81 1.6 NNW 7 9 4 5 1017.2 1015.5 0.0
22/10:00pm 10.3 8.8 8.4 88 1.0 NNW 6 7 3 4 1017.3 1015.6 0.0
22/09:30pm 10.3 8.5 8.1 86 1.1 ENE 7 9 4 5 1017.3 1015.6 0.0
22/09:00pm 10.9 9.3 8.1 83 1.5 N 6 7 3 4 1017.6 1015.9 0.0
22/08:30pm 10.0 8.8 6.3 78 1.9 NNW 2 4 1 2 1017.7 1016.0 0.0
22/08:00pm 11.3 9.8 7.0 75 2.2 ESE 4 6 2 3 1017.6 1015.9 0.0
22/07:30pm 12.6 10.6 7.1 69 2.9 SW 7 11 4 6 1017.2 1015.5 0.0
22/07:00pm 15.6 13.8 8.1 61 4.0 SSW 7 9 4 5 1016.9 1015.2 0.0
22/06:30pm 15.9 14.3 8.2 60 4.2 NNE 6 13 3 7 1016.7 1014.9 0.0

Other formats

Comma delimited format used in spreadsheet applications
http://www.bom.gov.au/fwo/IDV60801/IDV60801.94905.axf

JavaScript Object Notation format (JSON) in row-major order
http://www.bom.gov.au/fwo/IDV60801/IDV60801.94905.json

Data quality

Most of these data are generated automatically and are frequently updated. Quality checks on data are not normally performed. It is possible for incorrect values to appear. Refer to information at About Latest Weather Observations and please check the disclaimer before using these data.